Time;durP1;ratioP1;P1;durP2;ratioP2;P2;SDS_P1;SDS_P2;PMS_P1;PMS_P2;Temp;Humidity;BMP_temperature;BMP_pressure;BME280_temperature;BME280_humidity;BME280_pressure;Samples;Min_cycle;Max_cycle;Signal;HPM_P1;HPM_P2
2022/08/01 00:01:46;;;;;;;1.38;1.08;;;;;;;19.13;59.38;94515.91;5006891;28;20669;-73
2022/08/01 00:04:13;;;;;;;1.60;1.50;;;;;;;19.02;59.63;94515.84;4999286;28;20239;-72
2022/08/01 00:06:41;;;;;;;2.30;1.52;;;;;;;18.99;59.25;94511.13;5010034;28;20778;-73
2022/08/01 00:09:08;;;;;;;2.05;1.30;;;;;;;18.94;59.54;94518.94;4999659;28;20210;-72
2022/08/01 00:11:34;;;;;;;1.50;1.40;;;;;;;18.85;59.12;94524.78;5003631;28;20270;-73
2022/08/01 00:14:01;;;;;;;2.35;1.10;;;;;;;18.81;58.96;94521.22;5001013;28;20549;-72
2022/08/01 00:16:28;;;;;;;2.10;1.50;;;;;;;18.79;58.67;94521.59;5010232;28;20647;-73
2022/08/01 00:18:55;;;;;;;2.00;1.33;;;;;;;18.76;58.68;94516.88;4999997;28;20209;-73
2022/08/01 00:21:22;;;;;;;4.07;1.65;;;;;;;18.73;58.32;94517.63;5008784;28;20205;-72
2022/08/01 00:23:50;;;;;;;5.78;1.10;;;;;;;18.61;58.50;94517.16;5011173;28;20200;-72
2022/08/01 00:26:17;;;;;;;1.40;1.30;;;;;;;18.62;58.91;94516.75;5010990;28;20219;-73
2022/08/01 00:28:44;;;;;;;3.22;1.30;;;;;;;18.62;58.29;94524.22;4999330;28;20276;-73
2022/08/01 00:31:11;;;;;;;1.38;1.25;;;;;;;18.62;58.27;94518.72;5003901;28;20546;-74
2022/08/01 00:33:38;;;;;;;1.33;1.05;;;;;;;18.66;58.20;94520.34;5002056;28;20211;-74
2022/08/01 00:36:04;;;;;;;4.22;1.50;;;;;;;18.67;58.09;94515.63;5005546;28;20291;-74
2022/08/01 00:38:31;;;;;;;1.63;1.08;;;;;;;18.70;58.08;94520.38;5004000;28;20680;-73
2022/08/01 00:40:59;;;;;;;3.15;1.10;;;;;;;18.73;57.54;94514.88;5010720;28;20672;-72
2022/08/01 00:43:26;;;;;;;2.42;1.20;;;;;;;18.76;57.54;94524.31;5010559;28;20344;-72
2022/08/01 00:45:53;;;;;;;1.70;0.95;;;;;;;18.77;57.38;94525.88;5010456;28;20660;-73
2022/08/01 00:48:20;;;;;;;0.82;0.68;;;;;;;18.79;57.64;94523.56;5009702;28;20201;-73
2022/08/01 00:50:47;;;;;;;3.20;1.38;;;;;;;18.57;61.35;94521.81;5003306;28;20205;-74
2022/08/01 00:53:14;;;;;;;2.80;1.77;;;;;;;18.26;63.93;94526.66;5004083;28;20208;-72
2022/08/01 00:55:41;;;;;;;2.95;1.95;;;;;;;17.80;66.74;94528.16;4997907;28;20298;-72
2022/08/01 00:58:09;;;;;;;2.90;2.38;;;;;;;17.61;68.19;94529.09;5009446;28;20235;-73
2022/08/01 01:00:37;;;;;;;6.60;2.75;;;;;;;17.47;68.79;94526.22;4998363;28;20251;-73
2022/08/01 01:03:04;;;;;;;2.83;2.45;;;;;;;17.33;69.39;94524.09;4996557;28;20202;-73
2022/08/01 01:05:37;;;;;;;2.55;1.92;;;;;;;17.26;69.65;94516.56;5001564;28;20225;-73
2022/08/01 01:08:07;;;;;;;2.75;2.42;;;;;;;17.20;69.77;94512.59;5003976;28;20743;-72
2022/08/01 01:10:43;;;;;;;2.65;2.03;;;;;;;17.17;69.85;94507.84;5000073;28;20583;-73
2022/08/01 01:13:17;;;;;;;3.17;2.42;;;;;;;17.18;69.65;94505.91;4997020;28;20212;-72
2022/08/01 01:15:50;;;;;;;4.72;2.00;;;;;;;17.18;69.79;94511.38;5010299;28;20367;-73
2022/08/01 01:18:24;;;;;;;5.38;2.20;;;;;;;17.17;69.83;94502.38;4997208;28;20565;-72
2022/08/01 01:20:58;;;;;;;3.63;2.08;;;;;;;17.22;69.51;94509.47;5010467;28;20685;-73
2022/08/01 01:23:51;;;;;;;2.67;1.85;;;;;;;17.29;68.36;94499.41;5010438;28;20196;-72
2022/08/01 01:26:39;;;;;;;2.40;1.98;;;;;;;17.25;68.54;94505.97;4996994;28;20564;-73
2022/08/01 01:29:12;;;;;;;6.80;1.92;;;;;;;17.28;67.98;94499.75;5008437;28;20263;-73
2022/08/01 01:31:44;;;;;;;3.30;1.40;;;;;;;17.35;65.76;94495.19;4999032;28;20205;-73
2022/08/01 01:34:13;;;;;;;2.58;1.70;;;;;;;17.28;65.64;94492.34;4996896;28;20566;-74
2022/08/01 01:36:43;;;;;;;2.00;1.30;;;;;;;17.35;64.42;94486.16;5010019;28;20232;-74
2022/08/01 01:39:09;;;;;;;1.90;1.25;;;;;;;17.33;64.12;94488.50;5010199;28;20217;-73
2022/08/01 01:41:38;;;;;;;1.27;1.17;;;;;;;17.43;62.67;94485.09;5009770;28;20209;-73
2022/08/01 01:44:09;;;;;;;3.17;1.52;;;;;;;17.34;62.37;94479.91;5015368;28;20231;-73
2022/08/01 01:46:37;;;;;;;2.47;1.02;;;;;;;17.41;61.69;94481.91;5009625;28;20209;-72
2022/08/01 01:49:04;;;;;;;1.63;1.17;;;;;;;17.47;60.51;94477.69;4996492;28;20545;-72
2022/08/01 01:51:32;;;;;;;1.58;1.05;;;;;;;17.64;58.83;94481.78;5009446;28;20735;-72
2022/08/01 01:54:02;;;;;;;2.65;0.85;;;;;;;17.60;59.27;94476.28;4997565;28;20213;-72
2022/08/01 01:56:30;;;;;;;1.17;1.00;;;;;;;17.69;57.79;94471.31;5010129;28;20363;-72
2022/08/01 01:59:01;;;;;;;5.03;1.10;;;;;;;17.79;56.82;94477.25;5010116;28;20197;-73
2022/08/01 02:01:33;;;;;;;1.25;1.00;;;;;;;18.04;53.87;94470.06;5009820;28;20201;-73
2022/08/01 02:04:03;;;;;;;1.30;1.00;;;;;;;18.19;52.27;94465.47;5010155;28;20931;-73
2022/08/01 02:06:32;;;;;;;3.45;1.23;;;;;;;18.27;52.02;94456.94;4996172;28;20277;-73
2022/08/01 02:09:02;;;;;;;0.85;0.63;;;;;;;18.27;52.03;94459.66;4999354;28;20722;-74
2022/08/01 02:11:28;;;;;;;1.75;1.13;;;;;;;18.21;52.26;94460.38;5007164;28;20260;-73
2022/08/01 02:13:59;;;;;;;1.45;0.98;;;;;;;18.15;51.92;94456.44;5009439;28;20205;-73
2022/08/01 02:16:30;;;;;;;0.82;0.82;;;;;;;18.25;50.94;94451.03;4996028;28;20248;-73
2022/08/01 02:18:57;;;;;;;1.27;1.10;;;;;;;18.14;51.82;94461.13;5009164;28;20287;-73
2022/08/01 02:21:29;;;;;;;1.45;0.95;;;;;;;17.95;52.10;94461.34;5008445;28;20660;-73
2022/08/01 02:24:01;;;;;;;1.50;0.90;;;;;;;17.87;52.90;94452.28;5009830;28;20204;-73
2022/08/01 02:26:29;;;;;;;1.13;1.00;;;;;;;17.75;52.52;94464.31;4997520;28;20197;-73
2022/08/01 02:29:03;;;;;;;1.30;1.00;;;;;;;17.63;52.28;94450.88;4999182;28;20513;-73
2022/08/01 02:31:33;;;;;;;1.13;1.00;;;;;;;17.59;52.60;94452.78;5004779;28;20279;-73
2022/08/01 02:34:05;;;;;;;1.23;0.98;;;;;;;17.64;52.42;94460.66;5006156;28;20193;-73
2022/08/01 02:36:35;;;;;;;1.83;1.27;;;;;;;17.59;53.16;94452.78;5002371;28;20588;-73
2022/08/01 02:39:04;;;;;;;1.08;0.90;;;;;;;17.62;52.50;94462.19;5012358;28;20197;-73
2022/08/01 02:41:34;;;;;;;0.85;0.85;;;;;;;17.57;52.52;94460.59;5013049;28;20209;-73
2022/08/01 02:44:06;;;;;;;1.40;0.90;;;;;;;17.66;53.42;94461.09;5018396;28;20879;-73
2022/08/01 02:46:37;;;;;;;1.58;1.20;;;;;;;17.66;51.38;94463.81;5012249;28;20255;-73
2022/08/01 02:49:06;;;;;;;1.98;1.10;;;;;;;17.81;50.56;94461.22;4999245;28;20623;-74
2022/08/01 02:51:35;;;;;;;0.68;0.68;;;;;;;17.79;50.70;94449.84;4998650;28;20201;-74
2022/08/01 02:54:04;;;;;;;0.60;0.60;;;;;;;17.88;50.07;94455.81;5012710;28;20701;-73
2022/08/01 02:56:35;;;;;;;1.13;1.00;;;;;;;17.63;57.77;94450.88;5012227;28;20765;-73
2022/08/01 02:59:05;;;;;;;5.20;1.60;;;;;;;17.17;60.02;94457.78;5012678;28;20283;-72
2022/08/01 03:01:36;;;;;;;1.75;1.23;;;;;;;16.84;62.07;94456.59;5011863;28;20370;-73
2022/08/01 03:04:04;;;;;;;1.77;1.42;;;;;;;16.75;63.22;94450.63;5002675;28;20643;-73
2022/08/01 03:06:32;;;;;;;1.25;1.05;;;;;;;16.57;64.04;94457.75;5005825;28;20233;-73
2022/08/01 03:09:01;;;;;;;2.10;1.30;;;;;;;16.48;64.32;94462.72;5002265;28;20216;-73
2022/08/01 03:11:28;;;;;;;1.73;1.33;;;;;;;16.38;64.58;94455.16;4999337;28;20622;-72
2022/08/01 03:13:57;;;;;;;0.82;0.80;;;;;;;16.22;64.46;94456.09;5012190;28;20315;-73
2022/08/01 03:16:27;;;;;;;0.90;0.90;;;;;;;16.27;63.88;94466.69;5011941;28;20711;-72
2022/08/01 03:18:57;;;;;;;2.35;1.13;;;;;;;16.27;64.09;94465.91;5001769;28;20284;-72
2022/08/01 03:21:25;;;;;;;1.98;1.48;;;;;;;16.41;62.52;94463.38;5005282;28;20206;-72
2022/08/01 03:23:56;;;;;;;3.75;1.20;;;;;;;16.48;62.70;94465.44;5004124;28;20247;-73
2022/08/01 03:26:26;;;;;;;1.65;1.48;;;;;;;16.41;64.84;94460.66;5011650;28;20209;-71
2022/08/01 03:28:57;;;;;;;1.42;1.33;;;;;;;16.28;66.94;94462.81;4999608;28;20237;-73
2022/08/01 03:31:26;;;;;;;1.88;1.35;;;;;;;16.26;67.77;94470.59;4998816;28;20197;-73
2022/08/01 03:33:53;;;;;;;5.65;2.45;;;;;;;16.35;67.87;94471.13;4999010;28;20233;-73
2022/08/01 03:36:26;;;;;;;4.38;1.63;;;;;;;16.72;67.42;94470.50;5011520;28;20324;-73
2022/08/01 03:38:57;;;;;;;1.90;1.40;;;;;;;17.44;65.34;94469.44;5011836;28;20279;-73
2022/08/01 03:41:27;;;;;;;4.28;2.05;;;;;;;18.63;61.86;94459.94;5011367;28;20197;-72
2022/08/01 03:43:58;;;;;;;2.30;1.60;;;;;;;19.63;57.92;94456.47;5017629;28;20789;-73
2022/08/01 03:46:31;;;;;;;2.53;1.38;;;;;;;20.67;54.91;94451.81;5010950;28;20196;-72
2022/08/01 03:49:04;;;;;;;3.67;2.10;;;;;;;21.50;52.77;94453.91;4998799;28;20260;-72
2022/08/01 03:51:34;;;;;;;4.13;2.40;;;;;;;22.12;49.96;94444.91;5011425;28;20201;-73
2022/08/01 03:54:02;;;;;;;2.70;2.25;;;;;;;21.72;50.53;94449.88;5005342;28;20256;-73
2022/08/01 03:56:31;;;;;;;6.07;2.00;;;;;;;22.51;50.24;94441.81;5005097;28;20232;-73
2022/08/01 03:59:00;;;;;;;4.32;2.30;;;;;;;23.58;47.10;94433.16;4999140;28;20241;-71
2022/08/01 04:01:29;;;;;;;2.40;2.20;;;;;;;23.14;47.43;94436.84;5010901;28;20191;-72
2022/08/01 04:03:56;;;;;;;5.22;2.40;;;;;;;23.35;48.34;94436.59;4999098;28;20201;-73
2022/08/01 04:06:22;;;;;;;2.13;1.92;;;;;;;24.11;45.56;94437.94;4997901;28;20596;-73
2022/08/01 04:08:56;;;;;;;2.92;2.10;;;;;;;24.56;43.40;94435.66;5011568;28;20201;-73
2022/08/01 04:11:24;;;;;;;2.63;2.00;;;;;;;25.00;42.55;94447.59;5010809;28;21070;-73
2022/08/01 04:13:53;;;;;;;3.67;1.90;;;;;;;24.66;43.37;94437.47;5011385;28;20217;-73
2022/08/01 04:16:20;;;;;;;2.97;2.17;;;;;;;25.20;42.38;94440.06;5011391;28;20239;-73
2022/08/01 04:18:47;;;;;;;2.53;1.80;;;;;;;23.73;45.25;94451.16;5011663;28;20559;-72
2022/08/01 04:21:14;;;;;;;2.65;2.10;;;;;;;23.51;46.01;94449.84;5008054;28;20197;-73
2022/08/01 04:23:44;;;;;;;4.47;2.25;;;;;;;23.69;45.40;94445.66;5001293;28;20703;-74
2022/08/01 04:26:15;;;;;;;2.25;2.00;;;;;;;24.55;43.71;94442.41;4994243;28;20213;-73
2022/08/01 04:28:45;;;;;;;3.38;2.08;;;;;;;24.90;41.80;94442.97;5002367;28;20201;-72
2022/08/01 04:31:12;;;;;;;2.63;1.98;;;;;;;24.75;41.03;94446.00;4997961;28;20291;-73
2022/08/01 04:33:41;;;;;;;3.28;1.80;;;;;;;25.27;39.81;94447.47;4998776;28;20213;-73
2022/08/01 04:36:11;;;;;;;2.63;1.80;;;;;;;25.65;38.77;94442.34;5004114;28;20237;-73
2022/08/01 04:38:40;;;;;;;2.42;2.15;;;;;;;25.35;41.65;94444.09;5004650;28;20298;-73
2022/08/01 04:41:07;;;;;;;3.85;2.42;;;;;;;25.31;42.99;94446.16;5010626;28;20228;-72
2022/08/01 04:43:37;;;;;;;4.20;2.45;;;;;;;24.60;44.36;94452.97;5016238;28;20215;-72
2022/08/01 04:46:04;;;;;;;2.83;2.47;;;;;;;25.17;43.40;94451.19;5010157;28;20217;-72
2022/08/01 04:48:33;;;;;;;2.85;2.55;;;;;;;24.73;43.64;94451.19;5010059;28;20201;-72
2022/08/01 04:51:00;;;;;;;4.63;2.60;;;;;;;24.33;44.94;94450.25;5010225;28;20209;-73
2022/08/01 04:53:27;;;;;;;3.17;2.47;;;;;;;24.91;43.84;94444.53;5010240;28;20209;-73
2022/08/01 04:55:55;;;;;;;2.97;2.67;;;;;;;25.78;41.53;94434.91;5010781;28;20212;-73
2022/08/01 04:58:22;;;;;;;3.13;2.70;;;;;;;25.63;41.59;94444.75;5010653;28;20219;-75
2022/08/01 05:00:50;;;;;;;3.92;2.67;;;;;;;26.06;40.69;94448.16;5010735;28;20259;-73
2022/08/01 05:03:17;;;;;;;6.22;2.75;;;;;;;26.50;40.52;94440.41;5007220;28;20212;-74
2022/08/01 05:05:44;;;;;;;3.00;2.70;;;;;;;25.82;42.06;94444.75;5000395;28;20251;-73
2022/08/01 05:08:11;;;;;;;3.47;2.88;;;;;;;25.82;42.52;94430.88;4996647;28;20292;-73
2022/08/01 05:10:38;;;;;;;6.60;3.20;;;;;;;25.55;41.41;94435.00;4999948;28;20205;-73
2022/08/01 05:13:06;;;;;;;4.25;3.17;;;;;;;25.62;41.60;94441.19;5007277;28;20205;-73
2022/08/01 05:15:33;;;;;;;6.07;3.88;;;;;;;26.02;40.78;94438.34;5009883;28;20229;-73
2022/08/01 05:18:01;;;;;;;3.22;2.88;;;;;;;26.84;40.00;94437.94;4997173;28;20236;-73
2022/08/01 05:20:27;;;;;;;6.85;2.95;;;;;;;28.33;36.81;94426.56;5010197;28;20251;-74
2022/08/01 05:22:54;;;;;;;4.30;2.90;;;;;;;26.50;39.93;94435.66;5010200;28;20208;-75
2022/08/01 05:25:21;;;;;;;5.80;2.90;;;;;;;27.38;38.30;94430.97;5009932;28;20615;-73
2022/08/01 05:27:48;;;;;;;3.13;2.30;;;;;;;27.39;36.25;94427.75;5005350;28;20256;-73
2022/08/01 05:30:15;;;;;;;4.22;2.63;;;;;;;27.81;36.27;94422.19;5001959;28;20270;-78
2022/08/01 05:32:42;;;;;;;3.75;2.10;;;;;;;27.46;36.85;94435.91;5009989;28;20656;-72
2022/08/01 05:35:10;;;;;;;6.63;3.00;;;;;;;27.58;37.44;94412.91;4998541;28;20264;-74
2022/08/01 05:37:37;;;;;;;5.03;2.92;;;;;;;28.12;36.09;94433.56;5008207;28;20225;-74
2022/08/01 05:40:05;;;;;;;4.55;2.47;;;;;;;28.38;35.13;94412.06;5009734;28;20340;-73
2022/08/01 05:42:32;;;;;;;3.08;2.45;;;;;;;26.71;37.99;94434.31;5008724;28;20232;-75
2022/08/01 05:44:58;;;;;;;2.90;2.42;;;;;;;27.13;37.77;94428.88;5017527;28;20608;-86
2022/08/01 05:47:25;;;;;;;2.38;2.00;;;;;;;26.58;36.15;94436.25;5003632;28;20198;-77
2022/08/01 05:49:52;;;;;;;4.28;2.10;;;;;;;26.94;36.26;94427.00;5002921;28;20288;-74
2022/08/01 05:52:20;;;;;;;4.63;2.50;;;;;;;27.45;36.32;94431.56;5003620;28;20623;-73
2022/08/01 05:54:47;;;;;;;4.15;2.22;;;;;;;28.42;34.06;94426.69;5003529;28;20220;-72
2022/08/01 05:57:14;;;;;;;2.75;1.80;;;;;;;28.74;32.54;94429.19;5009888;28;20247;-73
2022/08/01 05:59:40;;;;;;;1.80;1.60;;;;;;;27.34;34.19;94436.63;4997008;28;20617;-73
2022/08/01 06:02:07;;;;;;;2.10;1.85;;;;;;;28.42;33.67;94435.03;4997581;28;20209;-73
2022/08/01 06:04:34;;;;;;;2.55;1.85;;;;;;;27.40;33.28;94428.53;5000360;28;20241;-81
2022/08/01 06:07:01;;;;;;;2.47;1.65;;;;;;;28.01;32.73;94430.34;5000134;28;20205;-75
2022/08/01 06:09:30;;;;;;;2.20;1.52;;;;;;;26.84;34.68;94443.50;5013451;28;20201;-74
2022/08/01 06:11:57;;;;;;;1.73;1.42;;;;;;;27.10;35.18;94446.44;5000980;28;20837;-73
2022/08/01 06:14:24;;;;;;;2.00;1.60;;;;;;;27.53;33.82;94435.69;5000401;28;20222;-74
2022/08/01 06:16:50;;;;;;;2.75;1.58;;;;;;;27.82;32.86;94427.31;5006692;28;20307;-76
2022/08/01 06:19:17;;;;;;;3.05;1.73;;;;;;;28.89;32.52;94438.66;5006808;28;20664;-73
2022/08/01 06:21:44;;;;;;;1.90;1.48;;;;;;;30.40;30.62;94430.69;5001330;28;20652;-73
2022/08/01 06:24:11;;;;;;;1.70;1.60;;;;;;;31.81;28.71;94441.16;5013336;28;20213;-74
2022/08/01 06:26:39;;;;;;;4.88;1.75;;;;;;;29.40;31.02;94446.84;5013705;28;20217;-74
2022/08/01 06:29:06;;;;;;;2.10;1.60;;;;;;;29.67;30.66;94440.69;5013380;28;20213;-73
2022/08/01 06:31:33;;;;;;;5.55;1.70;;;;;;;28.84;32.10;94444.78;5005209;28;20232;-74
2022/08/01 06:34:00;;;;;;;2.67;1.67;;;;;;;29.10;31.36;94439.16;5008369;28;20213;-74
2022/08/01 06:36:26;;;;;;;2.22;1.80;;;;;;;28.49;32.77;94443.16;5013056;28;20205;-73
2022/08/01 06:38:53;;;;;;;1.90;1.40;;;;;;;27.53;33.98;94441.25;5012951;28;20201;-75
2022/08/01 06:41:20;;;;;;;2.42;1.73;;;;;;;27.68;33.85;94438.09;5013510;28;20204;-74
2022/08/01 06:43:48;;;;;;;3.05;1.75;;;;;;;26.38;36.53;94443.88;5018835;28;20204;-73
2022/08/01 06:46:15;;;;;;;3.22;1.80;;;;;;;27.65;35.17;94427.81;5011779;28;20563;-73
2022/08/01 06:48:42;;;;;;;2.03;1.83;;;;;;;29.08;32.58;94424.88;4999352;28;20244;-73
2022/08/01 06:51:09;;;;;;;3.63;1.92;;;;;;;28.29;33.37;94444.16;5012657;28;20291;-75
2022/08/01 06:53:36;;;;;;;1.60;1.50;;;;;;;27.18;34.99;94428.34;5013081;28;20275;-72
2022/08/01 06:56:04;;;;;;;3.97;1.80;;;;;;;26.28;36.23;94433.78;5013050;28;20216;-80
2022/08/01 06:58:31;;;;;;;2.38;2.08;;;;;;;27.38;35.36;94406.69;5008569;28;20307;-74
2022/08/01 07:00:59;;;;;;;3.00;2.05;;;;;;;27.55;35.30;94408.19;5003230;28;20279;-73
2022/08/01 07:03:26;;;;;;;1.88;1.70;;;;;;;28.24;33.91;94414.09;4998902;28;20217;-73
2022/08/01 07:05:53;;;;;;;2.28;1.67;;;;;;;28.52;34.17;94414.41;5012086;28;20229;-72
2022/08/01 07:08:21;;;;;;;2.10;1.90;;;;;;;28.51;33.70;94410.84;4999433;28;20209;-73
2022/08/01 07:10:48;;;;;;;4.80;1.90;;;;;;;27.74;34.68;94425.19;5012594;28;20232;-76
2022/08/01 07:13:20;;;;;;;2.97;2.08;;;;;;;28.39;34.67;94411.63;5012081;28;20259;-72
2022/08/01 07:15:47;;;;;;;2.80;1.77;;;;;;;26.61;36.41;94420.69;5012424;28;20294;-76
2022/08/01 07:18:15;;;;;;;5.88;2.33;;;;;;;26.45;37.48;94435.38;4999664;28;20314;-76
2022/08/01 07:20:42;;;;;;;2.67;2.20;;;;;;;26.31;37.64;94419.06;5000219;28;20205;-74
2022/08/01 07:23:09;;;;;;;1.80;1.45;;;;;;;25.09;39.36;94436.72;5006119;28;20762;-77
2022/08/01 07:25:36;;;;;;;3.50;1.98;;;;;;;26.36;38.22;94438.00;5006060;28;20209;-75
2022/08/01 07:28:02;;;;;;;2.20;1.98;;;;;;;27.09;37.13;94425.41;5012504;28;20251;-74
2022/08/01 07:30:29;;;;;;;3.35;1.88;;;;;;;26.70;37.14;94431.97;4999953;28;20197;-82
2022/08/01 07:32:56;;;;;;;3.50;2.25;;;;;;;25.66;38.72;94443.91;5012236;28;20220;-74
2022/08/01 07:35:24;;;;;;;5.00;1.88;;;;;;;25.94;38.23;94429.41;5012607;28;20232;-75
2022/08/01 07:37:52;;;;;;;3.72;1.88;;;;;;;25.79;38.54;94451.16;4999756;28;20300;-75
2022/08/01 07:40:20;;;;;;;2.85;1.85;;;;;;;26.05;37.76;94415.28;5008567;28;20195;-74
2022/08/01 07:42:48;;;;;;;2.67;1.73;;;;;;;26.35;38.38;94428.09;5003719;28;20993;-74
2022/08/01 07:45:15;;;;;;;2.75;1.55;;;;;;;25.56;38.87;94422.69;5010778;28;20260;-75
2022/08/01 07:47:42;;;;;;;2.40;1.85;;;;;;;25.58;38.99;94425.81;5012130;28;20197;-74
2022/08/01 07:50:09;;;;;;;2.90;2.03;;;;;;;25.84;38.48;94422.09;5007805;28;20275;-75
2022/08/01 07:52:37;;;;;;;2.72;1.98;;;;;;;25.78;38.02;94435.69;5010288;28;20205;-75
2022/08/01 07:55:05;;;;;;;4.10;1.83;;;;;;;25.41;39.42;94422.22;5016300;28;20263;-76
2022/08/01 07:57:32;;;;;;;3.20;2.05;;;;;;;25.06;39.06;94415.38;5011441;28;20262;-81
2022/08/01 07:59:59;;;;;;;3.38;1.80;;;;;;;24.34;41.07;94440.75;5011272;28;20205;-78
2022/08/01 08:02:25;;;;;;;1.27;1.17;;;;;;;23.80;42.22;94434.44;5002808;28;20210;-81
2022/08/01 08:04:52;;;;;;;2.58;1.85;;;;;;;24.13;41.69;94440.28;5004630;28;20249;-74
2022/08/01 08:07:19;;;;;;;2.38;2.17;;;;;;;25.05;40.04;94438.75;4997625;28;20209;-76
2022/08/01 08:09:47;;;;;;;3.60;2.28;;;;;;;24.85;39.50;94429.63;5011281;28;20205;-73
2022/08/01 08:12:14;;;;;;;5.65;2.40;;;;;;;24.58;40.59;94438.78;5011161;28;20710;-77
2022/08/01 08:14:41;;;;;;;2.85;1.90;;;;;;;24.87;40.58;94439.06;5017293;28;20228;-79
2022/08/01 08:17:08;;;;;;;2.20;1.60;;;;;;;24.71;40.60;94416.81;5011020;28;20229;-80
2022/08/01 08:19:36;;;;;;;2.22;1.60;;;;;;;24.36;41.81;94426.50;5011082;28;20197;-77
2022/08/01 08:22:04;;;;;;;3.30;1.50;;;;;;;24.43;40.94;94416.09;5010798;28;20221;-77
2022/08/01 08:24:30;;;;;;;2.50;2.17;;;;;;;24.95;40.99;94428.66;5008767;28;20217;-73
2022/08/01 08:27:01;;;;;;;3.55;2.00;;;;;;;24.90;40.17;94429.09;5008209;28;20251;-83
2022/08/01 08:29:31;;;;;;;1.85;1.55;;;;;;;24.33;40.32;94432.88;5005655;28;20611;-84
2022/08/01 08:31:59;;;;;;;2.90;1.92;;;;;;;24.35;41.11;94438.78;4997399;28;20190;-72
2022/08/01 08:34:27;;;;;;;5.07;1.98;;;;;;;24.74;40.51;94430.56;5002503;28;20205;-75
2022/08/01 08:36:55;;;;;;;2.00;1.80;;;;;;;24.70;40.87;94427.09;5002462;28;20212;-78
2022/08/01 08:39:23;;;;;;;1.70;1.60;;;;;;;24.33;41.29;94435.63;5009967;28;20287;-73
2022/08/01 08:41:50;;;;;;;2.50;1.73;;;;;;;24.55;40.96;94434.09;5010767;28;20275;-74
2022/08/01 08:44:19;;;;;;;2.92;1.80;;;;;;;24.98;40.95;94427.81;5016847;28;20620;-73
2022/08/01 08:46:48;;;;;;;3.15;2.13;;;;;;;24.53;40.33;94425.41;5009947;28;20201;-75
2022/08/01 08:49:18;;;;;;;3.22;2.35;;;;;;;24.77;39.79;94440.81;5003393;28;20846;-73
2022/08/01 08:51:48;;;;;;;3.15;2.30;;;;;;;24.97;40.01;94437.34;5004278;28;20209;-74
2022/08/01 08:54:17;;;;;;;2.80;2.20;;;;;;;25.55;39.46;94423.91;4999449;28;20201;-73
2022/08/01 08:56:44;;;;;;;3.80;2.10;;;;;;;25.40;39.25;94423.41;5008658;28;20211;-73
2022/08/01 08:59:13;;;;;;;4.25;2.13;;;;;;;25.30;38.65;94416.88;5009444;28;20267;-73
2022/08/01 09:01:43;;;;;;;2.03;1.83;;;;;;;25.11;38.64;94425.97;4995218;28;20229;-73
2022/08/01 09:04:11;;;;;;;2.13;1.92;;;;;;;25.23;39.27;94428.13;5001012;28;20233;-73
2022/08/01 09:06:39;;;;;;;2.58;1.90;;;;;;;25.09;39.56;94431.16;5003143;28;20206;-72
2022/08/01 09:09:07;;;;;;;3.33;1.70;;;;;;;25.07;37.87;94414.94;5000051;28;20201;-73
2022/08/01 09:11:34;;;;;;;3.85;1.90;;;;;;;24.93;38.05;94417.19;5001178;28;20201;-73
2022/08/01 09:14:07;;;;;;;1.90;1.60;;;;;;;24.79;38.44;94421.78;4999399;28;20296;-77
2022/08/01 09:16:35;;;;;;;2.28;1.70;;;;;;;25.40;37.04;94418.66;5007625;28;20216;-74
2022/08/01 09:19:12;;;;;;;2.67;1.88;;;;;;;24.85;37.81;94413.00;5005163;28;20752;-77
2022/08/01 09:21:39;;;;;;;2.00;1.80;;;;;;;24.69;38.03;94410.91;5009191;28;20790;-73
2022/08/01 09:24:15;;;;;;;1.90;1.70;;;;;;;24.95;38.68;94389.84;5009845;28;20236;-77
2022/08/01 09:26:42;;;;;;;2.28;1.70;;;;;;;25.13;39.29;94401.38;5017497;28;20235;-74
2022/08/01 09:29:19;;;;;;;2.42;1.60;;;;;;;25.42;38.68;94401.59;5013145;28;20240;-73
2022/08/01 09:31:46;;;;;;;3.72;2.00;;;;;;;25.33;38.55;94402.16;4999315;28;20192;-79
2022/08/01 09:34:15;;;;;;;4.05;1.85;;;;;;;25.47;38.12;94407.41;5009779;28;20223;-73
2022/08/01 09:36:50;;;;;;;1.70;1.60;;;;;;;25.30;38.43;94405.78;5001399;28;20587;-75
2022/08/01 09:39:19;;;;;;;1.90;1.70;;;;;;;25.46;38.37;94408.59;5005576;28;20255;-76
2022/08/01 09:41:46;;;;;;;3.63;1.98;;;;;;;25.91;39.32;94407.28;5009218;28;20197;-74
2022/08/01 09:44:13;;;;;;;1.85;1.75;;;;;;;26.02;39.33;94411.38;5022589;28;20259;-72
2022/08/01 09:46:53;;;;;;;2.67;2.08;;;;;;;25.70;37.96;94405.75;5013136;28;20246;-82
2022/08/01 09:49:30;;;;;;;1.20;1.10;;;;;;;25.24;37.39;94401.94;5001129;28;20200;-75
2022/08/01 09:51:58;;;;;;;4.60;1.90;;;;;;;25.39;39.75;94414.31;5010183;28;20290;-74
2022/08/01 09:54:33;;;;;;;2.17;1.63;;;;;;;25.47;39.14;94404.63;5000069;28;20726;-78
2022/08/01 09:57:15;;;;;;;2.97;2.05;;;;;;;25.24;38.00;94385.31;4999601;28;20275;-74
2022/08/01 09:59:43;;;;;;;3.00;1.92;;;;;;;25.55;39.59;94398.94;5013096;28;20197;-72
2022/08/01 10:02:13;;;;;;;2.30;2.10;;;;;;;26.12;40.05;94390.09;5001305;28;20256;-73
2022/08/01 10:04:49;;;;;;;5.38;2.25;;;;;;;26.01;40.44;94390.38;5006174;28;20236;-73
2022/08/01 10:07:16;;;;;;;2.40;2.20;;;;;;;26.36;39.95;94387.97;5002036;28;20203;-71
2022/08/01 10:09:43;;;;;;;3.17;2.25;;;;;;;26.47;39.25;94389.28;5011113;28;20201;-73
2022/08/01 10:12:12;;;;;;;4.43;1.95;;;;;;;26.31;37.69;94382.94;5006894;28;20205;-74
2022/08/01 10:14:41;;;;;;;2.28;1.77;;;;;;;26.12;37.64;94388.09;5012539;28;20622;-72
2022/08/01 10:17:10;;;;;;;2.67;1.90;;;;;;;25.64;39.22;94396.38;5012989;28;20197;-75
2022/08/01 10:19:37;;;;;;;2.53;2.00;;;;;;;25.55;39.36;94379.53;5001077;28;20246;-74
2022/08/01 10:22:08;;;;;;;2.85;2.10;;;;;;;26.09;39.31;94377.91;5005394;28;20606;-73
2022/08/01 10:24:39;;;;;;;4.40;2.05;;;;;;;26.40;38.70;94377.53;5012729;28;20228;-75
2022/08/01 10:27:08;;;;;;;2.10;1.98;;;;;;;26.42;37.74;94366.78;5001558;28;20209;-78
2022/08/01 10:29:40;;;;;;;2.92;2.10;;;;;;;25.68;38.21;94377.66;5009477;28;20262;-75
2022/08/01 10:32:09;;;;;;;3.22;2.15;;;;;;;25.49;37.65;94384.78;5011235;28;20216;-75
2022/08/01 10:34:37;;;;;;;3.30;2.08;;;;;;;25.92;38.21;94373.53;5012570;28;20217;-73
2022/08/01 10:37:06;;;;;;;1.95;1.70;;;;;;;26.37;38.42;94367.31;4999999;28;20583;-73
2022/08/01 10:39:34;;;;;;;2.35;1.88;;;;;;;26.44;37.37;94367.13;5012099;28;20643;-75
2022/08/01 10:42:02;;;;;;;2.03;1.83;;;;;;;25.89;37.84;94368.84;5012534;28;20201;-80
2022/08/01 10:44:31;;;;;;;2.63;2.20;;;;;;;25.77;38.68;94380.63;5012569;28;20205;-74
2022/08/01 10:47:04;;;;;;;1.70;1.60;;;;;;;26.00;39.09;94374.91;4999392;28;20206;-74
2022/08/01 10:49:36;;;;;;;1.90;1.80;;;;;;;26.01;38.05;94373.72;5010599;28;20197;-77
2022/08/01 10:52:05;;;;;;;2.40;1.75;;;;;;;26.15;39.51;94370.59;5009953;28;20194;-74
2022/08/01 10:54:40;;;;;;;4.07;2.13;;;;;;;26.16;39.01;94369.38;5008609;28;20655;-73
2022/08/01 10:57:07;;;;;;;2.30;1.80;;;;;;;25.98;38.15;94366.25;5011783;28;20207;-74
2022/08/01 10:59:35;;;;;;;1.98;1.77;;;;;;;26.05;38.57;94360.53;5012214;28;20232;-74
2022/08/01 11:02:03;;;;;;;1.77;1.50;;;;;;;25.96;38.32;94357.59;5010700;28;20211;-78
2022/08/01 11:04:41;;;;;;;1.90;1.67;;;;;;;25.95;38.55;94360.78;5007675;28;20237;-80
2022/08/01 11:07:14;;;;;;;2.10;1.80;;;;;;;25.85;38.45;94354.25;5000207;28;20189;-72
2022/08/01 11:09:43;;;;;;;1.60;1.50;;;;;;;25.98;38.84;94357.91;5011837;28;20733;-73
2022/08/01 11:12:12;;;;;;;2.38;1.83;;;;;;;26.29;38.28;94363.94;5002868;28;20198;-73
2022/08/01 11:15:24;;;;;;;2.05;1.83;;;;;;;26.23;38.03;94353.75;5008623;28;20291;-73
2022/08/01 11:17:52;;;;;;;2.95;1.80;;;;;;;27.01;39.19;94346.97;4998636;28;20613;-72
2022/08/01 11:20:20;;;;;;;2.60;2.00;;;;;;;26.52;38.38;94354.59;5002340;28;20223;-72
2022/08/01 11:23:23;;;;;;;2.50;2.00;;;;;;;26.18;37.96;94361.41;5005499;28;20427;-76
2022/08/01 11:26:14;;;;;;;3.00;1.65;;;;;;;25.90;38.19;94355.75;5005244;28;20197;-73
2022/08/01 11:28:46;;;;;;;2.63;1.85;;;;;;;26.03;38.46;94354.63;5003338;28;20196;-74
2022/08/01 11:31:30;;;;;;;2.70;1.90;;;;;;;26.24;38.74;94344.22;5001914;28;20197;-71
2022/08/01 11:33:57;;;;;;;2.03;1.83;;;;;;;25.85;38.70;94343.16;5011498;28;20315;-73
2022/08/01 11:36:24;;;;;;;2.78;2.17;;;;;;;25.88;39.80;94335.97;5011134;28;20208;-75
2022/08/01 11:39:13;;;;;;;1.70;1.35;;;;;;;25.54;39.19;94334.34;5009781;28;20249;-77
2022/08/01 11:41:42;;;;;;;2.35;1.52;;;;;;;25.55;39.36;94324.03;5011820;28;20193;-81
2022/08/01 11:44:10;;;;;;;3.38;2.20;;;;;;;25.71;39.96;94351.81;5020821;28;20694;-75